createdAt,value
2022-10-13T00:00:55.166Z,72
2022-10-13T00:03:26.333Z,80
2022-10-13T00:05:58.216Z,83
2022-10-13T00:08:29.334Z,80
2022-10-13T00:11:00.197Z,79
2022-10-13T00:13:30.974Z,70
2022-10-13T00:16:03.125Z,72
2022-10-13T00:18:33.809Z,81
2022-10-13T00:21:05.010Z,83
2022-10-13T00:23:36.143Z,80
2022-10-13T00:26:07.300Z,76
2022-10-13T00:28:38.304Z,80
2022-10-13T00:31:08.525Z,76
2022-10-13T00:33:39.284Z,79
2022-10-13T00:36:11.220Z,80
2022-10-13T00:38:44.007Z,77
2022-10-13T00:41:17.333Z,80
2022-10-13T00:43:47.782Z,77
2022-10-13T00:46:18.930Z,80
2022-10-13T00:48:50.177Z,81
2022-10-13T00:51:21.182Z,82
2022-10-13T00:53:51.707Z,80
2022-10-13T00:56:22.682Z,77
2022-10-13T00:58:52.582Z,81
2022-10-13T01:01:23.932Z,80
2022-10-13T01:03:54.762Z,84
2022-10-13T01:06:26.895Z,82
2022-10-13T01:08:56.109Z,84
2022-10-13T01:11:26.939Z,74
2022-10-13T01:13:58.199Z,76
2022-10-13T01:16:29.441Z,80
2022-10-13T01:18:59.899Z,81
2022-10-13T01:21:31.184Z,76
2022-10-13T01:24:00.513Z,76
2022-10-13T01:26:31.866Z,81
2022-10-13T01:29:02.665Z,80
2022-10-13T01:31:34.860Z,80
2022-10-13T01:34:06.279Z,76
2022-10-13T01:36:37.543Z,73
2022-10-13T01:39:08.916Z,82
2022-10-13T01:41:39.385Z,72
2022-10-13T01:44:11.415Z,73
2022-10-13T01:46:43.091Z,80
2022-10-13T01:49:14.270Z,78
2022-10-13T01:51:43.885Z,81
2022-10-13T01:54:15.152Z,77
2022-10-13T01:56:47.739Z,84
2022-10-13T01:59:18.987Z,80
2022-10-13T02:01:49.720Z,75
2022-10-13T02:04:21.045Z,79
2022-10-13T02:06:52.419Z,71
2022-10-13T02:09:23.975Z,79
2022-10-13T02:11:54.686Z,77
2022-10-13T02:14:26.456Z,81
2022-10-13T02:16:58.041Z,75
2022-10-13T02:19:29.188Z,76
2022-10-13T02:22:00.279Z,80
2022-10-13T02:24:31.743Z,80
2022-10-13T02:27:02.925Z,80
2022-10-13T02:29:34.413Z,80
2022-10-13T02:32:05.500Z,80
2022-10-13T02:34:37.379Z,78
2022-10-13T02:37:08.478Z,80
2022-10-13T02:39:39.448Z,85
2022-10-13T02:42:10.827Z,80
2022-10-13T02:44:43.744Z,80
2022-10-13T02:47:14.461Z,80
2022-10-13T02:49:45.113Z,81
2022-10-13T02:52:16.232Z,80
2022-10-13T02:54:46.892Z,80
2022-10-13T02:57:17.804Z,80
2022-10-13T02:59:49.192Z,74
2022-10-13T03:02:20.142Z,76
2022-10-13T03:04:51.081Z,77
2022-10-13T03:07:22.308Z,80
2022-10-13T03:09:54.791Z,80
2022-10-13T03:12:25.905Z,84
2022-10-13T03:14:56.873Z,78
2022-10-13T03:17:28.226Z,84
2022-10-13T03:19:59.442Z,82
2022-10-13T03:22:30.305Z,79
2022-10-13T03:25:01.975Z,70
2022-10-13T03:27:33.894Z,86
2022-10-13T03:30:05.131Z,83
2022-10-13T03:32:36.427Z,81
2022-10-13T03:35:07.338Z,84
2022-10-13T03:37:38.960Z,80
2022-10-13T03:40:09.759Z,84
2022-10-13T03:42:40.791Z,80
2022-10-13T03:45:12.842Z,89
2022-10-13T03:47:42.987Z,78
2022-10-13T03:50:14.132Z,84
2022-10-13T03:52:44.841Z,83
2022-10-13T03:55:14.001Z,80
2022-10-13T03:57:45.961Z,87
2022-10-13T04:00:17.284Z,89
2022-10-13T04:02:48.206Z,84
2022-10-13T04:05:19.125Z,81
2022-10-13T04:07:51.271Z,76
2022-10-13T04:10:23.279Z,81
2022-10-13T04:12:54.632Z,84
2022-10-13T04:15:25.648Z,84
2022-10-13T04:17:57.428Z,82
2022-10-13T04:20:28.700Z,90
2022-10-13T04:22:59.116Z,81
2022-10-13T04:25:30.026Z,83
2022-10-13T04:28:02.146Z,83
2022-10-13T04:30:33.028Z,87
2022-10-13T04:33:03.535Z,83
2022-10-13T04:35:34.781Z,82
2022-10-13T04:38:05.307Z,86
2022-10-13T04:40:36.191Z,88
2022-10-13T04:43:06.880Z,85
2022-10-13T04:45:38.092Z,97
2022-10-13T04:48:10.804Z,80
2022-10-13T04:50:42.031Z,87
2022-10-13T04:53:18.267Z,80
2022-10-13T04:55:46.443Z,77
2022-10-13T04:58:18.974Z,84
2022-10-13T05:00:49.817Z,80
2022-10-13T05:03:20.385Z,78
2022-10-13T05:05:53.104Z,84
2022-10-13T05:08:23.717Z,83
2022-10-13T05:10:54.497Z,84
2022-10-13T05:13:25.757Z,78
2022-10-13T05:15:58.428Z,80
2022-10-13T05:18:28.983Z,84
2022-10-13T05:20:59.439Z,81
2022-10-13T05:23:30.266Z,81
2022-10-13T05:26:01.416Z,86
2022-10-13T05:28:34.169Z,80
2022-10-13T05:31:05.542Z,77
2022-10-13T05:33:36.926Z,84
2022-10-13T05:36:08.574Z,82
2022-10-13T05:38:39.413Z,74
2022-10-13T05:41:10.651Z,79
2022-10-13T05:43:41.525Z,80
2022-10-13T05:46:13.146Z,79
2022-10-13T05:48:43.627Z,84
2022-10-13T05:51:13.600Z,82
2022-10-13T05:53:48.246Z,85
2022-10-13T05:56:16.372Z,82
2022-10-13T05:58:47.567Z,80
2022-10-13T06:01:19.717Z,81
2022-10-13T06:03:50.384Z,84
2022-10-13T06:06:22.013Z,90
2022-10-13T06:08:52.737Z,92
2022-10-13T06:11:23.883Z,87
2022-10-13T06:13:54.839Z,102
2022-10-13T06:16:25.823Z,110
2022-10-13T06:18:56.890Z,97
2022-10-13T06:21:28.247Z,97
2022-10-13T06:23:58.880Z,82
2022-10-13T06:29:06.220Z,84
2022-10-13T06:31:37.101Z,95
2022-10-13T06:34:08.141Z,85
2022-10-13T06:36:38.514Z,96
2022-10-13T06:39:09.168Z,89
2022-10-13T06:41:40.088Z,89
2022-10-13T06:44:10.318Z,89
2022-10-13T06:46:41.105Z,108
2022-10-13T06:49:12.064Z,108
2022-10-13T06:51:42.485Z,127
2022-10-13T06:54:13.648Z,122
2022-10-13T06:56:44.758Z,114
2022-10-13T06:59:13.710Z,126
2022-10-13T07:01:44.445Z,110
2022-10-13T07:04:15.298Z,115
2022-10-13T07:06:45.969Z,118
2022-10-13T07:09:18.200Z,116
2022-10-13T07:11:49.104Z,120
2022-10-13T07:14:19.842Z,122
2022-10-13T07:16:51.458Z,114
2022-10-13T07:19:26.246Z,139
2022-10-13T07:21:57.950Z,119
2022-10-13T07:24:29.954Z,117
2022-10-13T07:27:04.011Z,127
2022-10-13T07:29:32.296Z,118
2022-10-13T07:32:03.787Z,131
2022-10-13T07:34:32.800Z,133
2022-10-13T07:37:05.966Z,133
2022-10-13T07:39:36.902Z,143
2022-10-13T07:42:08.392Z,124
2022-10-13T07:44:41.571Z,118
2022-10-13T07:47:12.527Z,121
2022-10-13T07:49:43.410Z,119
2022-10-13T07:52:14.289Z,119
2022-10-13T07:54:44.934Z,124
2022-10-13T07:57:16.158Z,116
2022-10-13T07:59:46.934Z,107
2022-10-13T08:02:16.174Z,117
2022-10-13T08:04:46.862Z,117
2022-10-13T08:07:17.711Z,99
2022-10-13T08:09:47.968Z,110
2022-10-13T08:12:19.880Z,100
2022-10-13T08:14:50.416Z,95
2022-10-13T08:17:21.723Z,96
2022-10-13T08:19:52.011Z,92
2022-10-13T08:22:28.016Z,100
2022-10-13T08:24:56.624Z,85
2022-10-13T08:27:42.149Z,84
2022-10-13T08:29:58.313Z,85
2022-10-13T08:32:30.091Z,83
2022-10-13T08:35:00.865Z,85
2022-10-13T08:37:32.127Z,86
2022-10-13T08:40:02.403Z,75
2022-10-13T08:42:34.019Z,80
2022-10-13T08:47:36.752Z,83
2022-10-13T08:50:07.857Z,93
2022-10-13T08:52:38.128Z,83
2022-10-13T08:55:08.830Z,86
2022-10-13T08:57:39.679Z,78
2022-10-13T09:00:10.887Z,70
2022-10-13T09:02:41.498Z,77
2022-10-13T09:05:13.100Z,86
2022-10-13T09:07:44.004Z,79
2022-10-13T09:10:15.966Z,68
2022-10-13T09:12:46.948Z,70
2022-10-13T09:15:16.827Z,75
2022-10-13T09:17:47.746Z,67
2022-10-13T09:20:18.570Z,65
2022-10-13T09:22:49.453Z,64
2022-10-13T09:25:23.088Z,70
2022-10-13T09:27:54.377Z,56
2022-10-13T09:30:28.206Z,59
2022-10-13T09:32:59.104Z,60
2022-10-13T09:35:29.609Z,56
2022-10-13T09:38:00.503Z,56
2022-10-13T09:40:32.170Z,67
2022-10-13T09:43:03.007Z,65
2022-10-13T09:45:32.563Z,52
2022-10-13T09:48:04.450Z,45
2022-10-13T09:50:36.248Z,52
2022-10-13T09:53:07.619Z,55
2022-10-13T09:55:38.722Z,48
2022-10-13T09:58:11.194Z,48
2022-10-13T10:00:41.808Z,47
2022-10-13T10:03:12.635Z,52
2022-10-13T10:05:43.916Z,45
2022-10-13T10:08:15.613Z,48
2022-10-13T10:10:46.409Z,72
2022-10-13T10:13:15.551Z,68
2022-10-13T10:15:44.733Z,60
2022-10-13T10:18:15.103Z,79
2022-10-13T10:20:46.188Z,100
2022-10-13T10:23:16.691Z,102
2022-10-13T10:25:46.916Z,92
2022-10-13T10:28:17.421Z,84
2022-10-13T10:30:48.470Z,102
2022-10-13T10:33:19.048Z,97
2022-10-13T10:38:27.009Z,100
2022-10-13T10:40:58.204Z,93
2022-10-13T10:43:30.088Z,99
2022-10-13T10:46:00.829Z,91
2022-10-13T10:48:31.540Z,93
2022-10-13T10:51:03.265Z,92
2022-10-13T10:53:34.540Z,83
2022-10-13T10:56:05.332Z,80
2022-10-13T10:58:36.254Z,84
2022-10-13T11:01:07.263Z,87
2022-10-13T11:03:37.795Z,87
2022-10-13T11:06:09.520Z,82
2022-10-13T11:08:40.460Z,87
2022-10-13T11:11:10.168Z,88
2022-10-13T11:13:40.631Z,77
2022-10-13T11:16:11.572Z,87
2022-10-13T11:18:42.125Z,84
2022-10-13T11:21:13.880Z,74
2022-10-13T11:23:44.903Z,78
2022-10-13T11:26:15.393Z,86
2022-10-13T11:28:46.257Z,76
2022-10-13T11:31:17.376Z,75
2022-10-13T11:33:48.210Z,70
2022-10-13T11:36:19.393Z,81
2022-10-13T11:38:50.334Z,70
2022-10-13T11:41:20.414Z,72
2022-10-13T11:43:51.243Z,78
2022-10-13T11:46:22.112Z,64
2022-10-13T11:48:52.730Z,80
2022-10-13T11:51:25.089Z,68
2022-10-13T11:53:55.176Z,71
2022-10-13T11:56:25.834Z,70
2022-10-13T11:58:56.510Z,66
2022-10-13T12:01:27.405Z,69
2022-10-13T12:03:58.628Z,72
2022-10-13T12:06:30.301Z,70
2022-10-13T12:09:01.340Z,82
2022-10-13T12:11:30.966Z,65
2022-10-13T12:14:02.249Z,64
2022-10-13T12:16:34.173Z,68
2022-10-13T12:19:03.503Z,64
2022-10-13T12:21:34.030Z,68
2022-10-13T12:24:04.878Z,60
2022-10-13T12:26:36.401Z,64
2022-10-13T12:29:07.768Z,63
2022-10-13T12:31:38.282Z,60
2022-10-13T12:34:09.284Z,64
2022-10-13T12:36:39.770Z,56
2022-10-13T12:39:10.360Z,55
2022-10-13T12:41:41.199Z,52
2022-10-13T12:44:12.707Z,49
2022-10-13T12:46:41.906Z,58
2022-10-13T12:49:13.308Z,49
2022-10-13T12:51:44.478Z,47
2022-10-13T12:54:15.495Z,44
2022-10-13T12:56:51.194Z,51
2022-10-13T12:59:20.493Z,48
2022-10-13T13:01:52.504Z,46
2022-10-13T13:04:28.192Z,47
2022-10-13T13:07:00.468Z,45
2022-10-13T13:09:36.127Z,51
2022-10-13T13:12:08.610Z,49
2022-10-13T13:14:40.481Z,48
2022-10-13T13:17:11.253Z,49
2022-10-13T13:19:41.902Z,57
2022-10-13T13:22:12.475Z,53
2022-10-13T13:24:46.444Z,53
2022-10-13T13:27:17.755Z,52
2022-10-13T13:29:48.138Z,56
2022-10-13T13:32:20.588Z,85
2022-10-13T13:34:51.611Z,51
2022-10-13T13:37:23.920Z,64
2022-10-13T13:39:55.154Z,63
2022-10-13T13:42:26.072Z,47
2022-10-13T13:44:56.085Z,45
2022-10-13T13:47:27.938Z,48
2022-10-13T13:49:58.574Z,44
2022-10-13T13:52:29.841Z,44
2022-10-13T13:55:00.994Z,45
2022-10-13T13:57:31.765Z,46
2022-10-13T14:00:03.458Z,45
2022-10-13T14:02:40.278Z,47
2022-10-13T14:05:12.876Z,43
2022-10-13T14:07:44.588Z,42
2022-10-13T14:10:15.389Z,45
2022-10-13T14:12:46.340Z,45
2022-10-13T14:15:18.778Z,45
2022-10-13T14:17:52.609Z,52
2022-10-13T14:20:21.888Z,46
2022-10-13T14:22:51.311Z,46
2022-10-13T14:25:22.555Z,48
2022-10-13T14:27:53.483Z,44
2022-10-13T14:30:23.487Z,50
2022-10-13T14:32:57.661Z,60
2022-10-13T14:35:31.537Z,48
2022-10-13T14:38:02.735Z,51
2022-10-13T14:40:33.962Z,52
2022-10-13T14:43:08.541Z,42
2022-10-13T14:45:39.965Z,44
2022-10-13T14:48:11.314Z,46
2022-10-13T14:50:42.311Z,48
2022-10-13T14:53:15.781Z,48
2022-10-13T14:55:47.150Z,49
2022-10-13T14:58:18.759Z,48
2022-10-13T15:00:54.986Z,48
2022-10-13T15:03:25.739Z,52
2022-10-13T15:05:55.148Z,49
2022-10-13T15:08:26.413Z,52
2022-10-13T15:10:58.388Z,55
2022-10-13T15:13:29.928Z,52
2022-10-13T15:16:02.933Z,56
2022-10-13T15:18:35.026Z,53
2022-10-13T15:21:06.585Z,90
2022-10-13T15:23:38.098Z,56
2022-10-13T15:26:09.150Z,49
2022-10-13T15:28:46.389Z,52
2022-10-13T15:31:18.685Z,51
2022-10-13T15:33:50.784Z,51
2022-10-13T15:36:22.272Z,55
2022-10-13T15:38:55.110Z,62
2022-10-13T15:41:29.762Z,52
2022-10-13T15:44:01.386Z,58
2022-10-13T15:46:35.339Z,54
2022-10-13T15:49:06.691Z,55
2022-10-13T15:51:39.357Z,56
2022-10-13T15:54:11.032Z,52
2022-10-13T15:56:42.734Z,54
2022-10-13T15:59:15.113Z,60
2022-10-13T16:01:48.531Z,60
2022-10-13T16:04:19.871Z,66
2022-10-13T16:06:51.842Z,63
2022-10-13T16:09:23.265Z,55
2022-10-13T16:11:56.163Z,57
2022-10-13T16:14:27.648Z,52
2022-10-13T16:17:00.777Z,58
2022-10-13T16:19:30.956Z,56
2022-10-13T16:22:02.280Z,57
2022-10-13T16:24:33.355Z,56
2022-10-13T16:27:06.086Z,54
2022-10-13T16:29:36.928Z,64
2022-10-13T16:32:08.158Z,61
2022-10-13T16:34:38.863Z,61
2022-10-13T16:37:12.479Z,61
2022-10-13T16:39:47.785Z,64
2022-10-13T16:42:15.689Z,69
2022-10-13T16:44:46.588Z,68
2022-10-13T16:47:22.904Z,73
2022-10-13T16:49:53.977Z,75
2022-10-13T16:52:25.009Z,73
2022-10-13T16:54:56.955Z,68
2022-10-13T16:57:29.502Z,72
2022-10-13T16:59:58.932Z,78
2022-10-13T17:02:32.846Z,72
2022-10-13T17:05:05.322Z,77
2022-10-13T17:07:35.473Z,72
2022-10-13T17:10:07.780Z,69
2022-10-13T17:12:38.945Z,69
2022-10-13T17:15:11.625Z,72
2022-10-13T17:17:41.712Z,72
2022-10-13T17:20:13.691Z,63
2022-10-13T17:22:45.125Z,69
2022-10-13T17:25:16.182Z,73
2022-10-13T17:27:48.382Z,68
2022-10-13T17:30:19.573Z,68
2022-10-13T17:32:50.522Z,73
2022-10-13T17:35:23.747Z,64
2022-10-13T17:37:55.773Z,70
2022-10-13T17:40:27.490Z,68
2022-10-13T17:42:59.364Z,68
2022-10-13T17:45:31.023Z,65
2022-10-13T17:48:01.918Z,67
2022-10-13T17:50:33.376Z,72
2022-10-13T17:53:04.877Z,76
2022-10-13T17:55:36.749Z,80
2022-10-13T17:58:08.105Z,73
2022-10-13T18:01:07.911Z,68
2022-10-13T18:03:09.448Z,73
2022-10-13T18:05:40.525Z,65
2022-10-13T18:08:15.004Z,79
2022-10-13T18:11:09.025Z,72
2022-10-13T18:13:18.118Z,76
2022-10-13T18:15:53.623Z,68
2022-10-13T18:18:29.851Z,72
2022-10-13T18:21:01.169Z,70
2022-10-13T18:23:34.735Z,77
2022-10-13T18:26:06.127Z,76
2022-10-13T18:28:38.049Z,77
2022-10-13T18:31:10.234Z,76
2022-10-13T18:33:43.107Z,73
2022-10-13T18:36:14.488Z,77
2022-10-13T18:38:43.979Z,75
2022-10-13T18:41:15.204Z,74
2022-10-13T18:43:47.713Z,66
2022-10-13T18:46:18.887Z,73
2022-10-13T18:48:54.584Z,66
2022-10-13T18:51:34.817Z,71
2022-10-13T18:54:00.615Z,67
2022-10-13T18:56:34.026Z,65
2022-10-13T18:59:05.205Z,61
2022-10-13T19:01:36.935Z,66
2022-10-13T19:04:09.291Z,64
2022-10-13T19:06:45.121Z,61
2022-10-13T19:11:49.623Z,69
2022-10-13T19:14:21.563Z,69
2022-10-13T19:16:52.462Z,68
2022-10-13T19:19:25.057Z,69
2022-10-13T19:22:05.526Z,65
2022-10-13T19:24:36.994Z,70
2022-10-13T19:27:16.940Z,62
2022-10-13T19:29:46.752Z,64
2022-10-13T19:32:17.569Z,72
2022-10-13T19:34:59.049Z,64
2022-10-13T19:37:31.070Z,64
2022-10-13T19:40:06.375Z,67
2022-10-13T19:42:37.809Z,72
2022-10-13T19:45:12.356Z,63
2022-10-13T19:47:44.651Z,70
2022-10-13T19:50:17.712Z,69
2022-10-13T19:52:53.173Z,64
2022-10-13T19:55:25.915Z,67
2022-10-13T19:57:59.381Z,70
2022-10-13T20:00:33.791Z,70
2022-10-13T20:03:05.357Z,67
2022-10-13T20:05:37.516Z,62
2022-10-13T20:08:08.876Z,69
2022-10-13T20:10:41.860Z,65
2022-10-13T20:13:13.542Z,62
2022-10-13T20:15:44.355Z,60
2022-10-13T20:18:15.175Z,66
2022-10-13T20:20:49.067Z,64
2022-10-13T20:23:22.009Z,60
2022-10-13T20:25:51.842Z,65
2022-10-13T20:28:31.593Z,64
2022-10-13T20:31:05.130Z,65
2022-10-13T20:33:37.724Z,61
2022-10-13T20:36:09.111Z,67
2022-10-13T20:38:40.672Z,70
2022-10-13T20:41:17.520Z,60
2022-10-13T20:43:50.253Z,63
2022-10-13T20:46:22.921Z,56
2022-10-13T20:49:10.264Z,54
2022-10-13T20:51:26.772Z,68
2022-10-13T20:54:01.451Z,60
2022-10-13T20:56:32.749Z,61
2022-10-13T20:59:04.164Z,62
2022-10-13T21:01:38.139Z,60
2022-10-13T21:04:14.628Z,59
2022-10-13T21:06:45.753Z,58
2022-10-13T21:09:16.791Z,58
2022-10-13T21:11:47.804Z,64
2022-10-13T21:14:18.935Z,62
2022-10-13T21:16:49.642Z,60
2022-10-13T21:19:22.885Z,53
2022-10-13T21:21:54.148Z,58
2022-10-13T21:24:25.519Z,56
2022-10-13T21:26:59.206Z,49
2022-10-13T21:29:30.394Z,54
2022-10-13T21:32:03.199Z,60
2022-10-13T21:34:34.476Z,60
2022-10-13T21:37:07.690Z,53
2022-10-13T21:39:44.472Z,58
2022-10-13T21:42:15.848Z,55
2022-10-13T21:44:48.771Z,59
2022-10-13T21:47:20.683Z,56
2022-10-13T21:49:51.801Z,52
2022-10-13T21:52:24.750Z,61
2022-10-13T21:54:55.498Z,56
2022-10-13T21:57:27.773Z,55
2022-10-13T21:59:59.083Z,57
2022-10-13T22:02:31.791Z,59
2022-10-13T22:05:02.742Z,59
2022-10-13T22:07:33.301Z,56
2022-10-13T22:10:04.687Z,52
2022-10-13T22:12:37.371Z,50
2022-10-13T22:15:09.728Z,51
2022-10-13T22:17:40.080Z,48
2022-10-13T22:20:10.849Z,56
2022-10-13T22:22:42.207Z,52
2022-10-13T22:25:13.268Z,54
2022-10-13T22:27:45.973Z,53
2022-10-13T22:30:17.815Z,52
2022-10-13T22:32:48.477Z,52
2022-10-13T22:35:18.961Z,50
2022-10-13T22:37:50.279Z,52
2022-10-13T22:40:22.979Z,48
2022-10-13T22:42:55.704Z,52
2022-10-13T22:45:29.113Z,52
2022-10-13T22:48:01.927Z,48
2022-10-13T22:50:33.165Z,48
2022-10-13T22:53:04.471Z,52
2022-10-13T22:55:36.359Z,50
2022-10-13T22:58:07.182Z,50
2022-10-13T23:00:38.199Z,49
2022-10-13T23:03:08.861Z,52
2022-10-13T23:05:39.795Z,48
2022-10-13T23:08:10.536Z,55
2022-10-13T23:10:47.303Z,46
2022-10-13T23:13:16.240Z,53
2022-10-13T23:15:46.911Z,56
2022-10-13T23:18:22.380Z,51
2022-10-13T23:20:56.615Z,52
2022-10-13T23:23:26.613Z,56
2022-10-13T23:25:59.491Z,48
2022-10-13T23:28:32.171Z,48
2022-10-13T23:31:04.938Z,54
2022-10-13T23:33:34.410Z,50
2022-10-13T23:36:07.857Z,51
2022-10-13T23:38:40.687Z,50
2022-10-13T23:41:17.293Z,51
2022-10-13T23:43:49.639Z,48
2022-10-13T23:46:23.545Z,46
2022-10-13T23:48:54.783Z,49
2022-10-13T23:51:25.824Z,52
2022-10-13T23:53:54.917Z,46
2022-10-13T23:56:25.771Z,46
2022-10-13T23:58:57.587Z,55
